createdAt,value
2022-08-19T00:01:15.348Z,60.73
2022-08-19T00:04:57.407Z,60.76
2022-08-19T00:08:27.020Z,60.74
2022-08-19T00:11:56.752Z,60.86
2022-08-19T00:15:24.715Z,60.91
2022-08-19T00:18:52.919Z,61.02
2022-08-19T00:22:21.212Z,61.00
2022-08-19T00:25:48.785Z,61.08
2022-08-19T00:29:18.696Z,61.18
2022-08-19T00:32:45.618Z,61.38
2022-08-19T00:36:14.663Z,61.57
2022-08-19T00:39:41.831Z,61.67
2022-08-19T00:43:14.559Z,61.72
2022-08-19T00:46:44.120Z,61.85
2022-08-19T00:50:15.175Z,61.88
2022-08-19T00:53:44.740Z,62.00
2022-08-19T00:57:14.751Z,62.03
2022-08-19T01:00:41.949Z,62.07
2022-08-19T01:04:09.732Z,62.10
2022-08-19T01:07:38.556Z,62.18
2022-08-19T01:11:06.194Z,62.23
2022-08-19T01:14:39.485Z,62.31
2022-08-19T01:18:13.364Z,62.37
2022-08-19T01:21:44.508Z,62.42
2022-08-19T01:25:18.935Z,62.46
2022-08-19T01:28:48.591Z,62.63
2022-08-19T01:32:32.006Z,62.75
2022-08-19T01:36:08.487Z,62.99
2022-08-19T01:39:35.458Z,62.98
2022-08-19T01:43:04.290Z,63.05
2022-08-19T01:46:31.633Z,63.03
2022-08-19T01:50:00.582Z,62.99
2022-08-19T01:53:33.662Z,63.24
2022-08-19T01:57:06.563Z,63.23
2022-08-19T02:00:35.268Z,63.24
2022-08-19T02:04:02.315Z,63.39
2022-08-19T02:07:30.463Z,63.38
2022-08-19T02:10:58.071Z,63.27
2022-08-19T02:14:24.912Z,63.28
2022-08-19T02:17:52.840Z,63.32
2022-08-19T02:21:21.796Z,63.37
2022-08-19T02:24:49.209Z,63.33
2022-08-19T02:28:18.713Z,63.46
2022-08-19T02:31:46.130Z,63.50
2022-08-19T02:35:14.440Z,63.53
2022-08-19T02:38:41.888Z,63.64
2022-08-19T02:42:10.234Z,63.59
2022-08-19T02:45:40.543Z,63.58
2022-08-19T02:49:10.726Z,63.73
2022-08-19T02:52:38.404Z,63.66
2022-08-19T02:56:08.894Z,63.84
2022-08-19T02:59:36.969Z,63.80
2022-08-19T03:03:04.439Z,63.90
2022-08-19T03:06:31.746Z,63.86
2022-08-19T03:09:59.116Z,63.93
2022-08-19T03:13:26.616Z,64.08
2022-08-19T03:16:55.717Z,64.06
2022-08-19T03:20:23.048Z,64.02
2022-08-19T03:23:51.285Z,64.11
2022-08-19T03:27:18.885Z,64.22
2022-08-19T03:30:58.185Z,64.29
2022-08-19T03:34:31.889Z,64.37
2022-08-19T03:38:00.673Z,64.48
2022-08-19T03:41:34.222Z,64.53
2022-08-19T03:45:13.337Z,64.65
2022-08-19T03:48:41.884Z,64.58
2022-08-19T03:52:09.329Z,64.57
2022-08-19T03:55:36.532Z,64.68
2022-08-19T03:59:04.318Z,64.73
2022-08-19T04:02:31.754Z,64.62
2022-08-19T04:05:58.866Z,64.71
2022-08-19T04:09:25.935Z,64.73
2022-08-19T04:12:53.074Z,64.72
2022-08-19T04:16:21.161Z,64.62
2022-08-19T04:19:56.169Z,64.64
2022-08-19T04:23:23.109Z,64.69
2022-08-19T04:26:50.848Z,64.69
2022-08-19T04:30:20.500Z,64.73
2022-08-19T04:33:47.070Z,64.91
2022-08-19T04:37:15.325Z,64.89
2022-08-19T04:41:10.347Z,65.06
2022-08-19T04:44:46.425Z,65.16
2022-08-19T04:48:26.894Z,65.10
2022-08-19T04:51:57.107Z,65.29
2022-08-19T04:55:26.889Z,65.15
2022-08-19T04:58:55.254Z,65.04
2022-08-19T05:02:26.837Z,64.93
2022-08-19T05:05:54.458Z,65.01
2022-08-19T05:09:22.993Z,65.02
2022-08-19T05:12:49.988Z,65.02
2022-08-19T05:16:18.718Z,64.93
2022-08-19T05:20:02.994Z,64.84
2022-08-19T05:23:31.858Z,65.10
2022-08-19T05:27:00.295Z,65.07
2022-08-19T05:30:46.168Z,65.26
2022-08-19T05:34:20.096Z,65.23
2022-08-19T05:37:47.453Z,65.18
2022-08-19T05:41:18.003Z,65.03
2022-08-19T05:44:46.794Z,65.10
2022-08-19T05:48:14.034Z,65.12
2022-08-19T05:51:41.123Z,65.21
2022-08-19T05:55:10.598Z,65.17
2022-08-19T05:58:38.389Z,65.15
2022-08-19T06:02:07.744Z,65.13
2022-08-19T06:05:39.109Z,65.04
2022-08-19T06:09:16.494Z,64.88
2022-08-19T06:12:43.198Z,65.01
2022-08-19T06:16:10.601Z,64.98
2022-08-19T06:19:40.872Z,64.82
2022-08-19T06:23:11.017Z,64.91
2022-08-19T06:30:19.456Z,64.54
2022-08-19T06:33:47.487Z,64.48
2022-08-19T06:37:20.272Z,64.39
2022-08-19T06:40:47.539Z,64.36
2022-08-19T06:44:15.163Z,64.28
2022-08-19T06:47:47.374Z,64.21
2022-08-19T06:51:19.932Z,64.08
2022-08-19T06:54:55.429Z,63.98
2022-08-19T06:58:24.183Z,63.95
2022-08-19T07:02:04.363Z,63.90
2022-08-19T07:05:31.891Z,63.77
2022-08-19T07:09:00.535Z,63.68
2022-08-19T07:12:30.932Z,63.63
2022-08-19T07:15:58.139Z,63.48
2022-08-19T07:19:33.059Z,63.44
2022-08-19T07:23:01.709Z,63.34
2022-08-19T07:26:42.578Z,63.35
2022-08-19T07:30:14.605Z,63.25
2022-08-19T07:33:43.525Z,62.99
2022-08-19T07:37:12.509Z,62.80
2022-08-19T07:40:40.498Z,62.64
2022-08-19T07:44:10.814Z,62.51
2022-08-19T07:47:47.427Z,62.53
2022-08-19T07:51:35.902Z,62.33
2022-08-19T07:55:05.372Z,62.12
2022-08-19T07:58:33.169Z,61.92
2022-08-19T10:37:14.656Z,52.09
2022-08-19T10:40:43.075Z,52.11
2022-08-19T10:44:12.304Z,51.77
2022-08-19T10:47:41.424Z,51.65
2022-08-19T10:51:26.458Z,51.35
2022-08-19T10:55:11.806Z,50.98
2022-08-19T10:58:40.105Z,50.41
2022-08-19T11:02:13.399Z,50.25
2022-08-19T11:05:40.748Z,50.28
2022-08-19T11:09:08.572Z,49.70
2022-08-19T11:12:36.032Z,49.85
2022-08-19T11:16:07.919Z,49.57
2022-08-19T11:19:59.518Z,49.50
2022-08-19T11:23:29.085Z,49.34
2022-08-19T11:27:03.905Z,49.23
2022-08-19T11:30:30.773Z,48.85
2022-08-19T11:33:58.244Z,48.65
2022-08-19T11:37:25.717Z,48.44
2022-08-19T11:41:00.823Z,48.11
2022-08-19T11:44:34.673Z,48.09
2022-08-19T11:48:04.795Z,47.85
2022-08-19T11:51:32.595Z,47.65
2022-08-19T11:55:00.281Z,47.49
2022-08-19T11:58:27.353Z,47.17
2022-08-19T12:01:55.101Z,46.90
2022-08-19T12:05:22.362Z,46.95
2022-08-19T12:08:49.889Z,46.78
2022-08-19T12:12:16.906Z,46.43
2022-08-19T12:15:46.176Z,46.19
2022-08-19T12:19:13.935Z,45.78
2022-08-19T12:22:49.878Z,45.23
2022-08-19T12:26:19.915Z,45.08
2022-08-19T12:29:46.552Z,45.09
2022-08-19T12:33:14.900Z,44.58
2022-08-19T12:36:41.867Z,44.40
2022-08-19T12:40:13.012Z,44.20
2022-08-19T12:43:40.913Z,43.99
2022-08-19T12:47:09.035Z,43.66
2022-08-19T12:50:37.174Z,43.43
2022-08-19T12:54:05.155Z,42.63
2022-08-19T12:57:33.470Z,42.18
2022-08-19T13:01:00.275Z,42.12
2022-08-19T13:04:27.544Z,41.56
2022-08-19T13:07:57.226Z,41.73
2022-08-19T13:11:26.750Z,41.11
2022-08-19T13:14:53.448Z,40.92
2022-08-19T13:18:20.893Z,40.39
2022-08-19T13:21:51.743Z,40.03
2022-08-19T13:25:28.071Z,39.98
2022-08-19T13:29:12.162Z,39.74
2022-08-19T13:32:56.325Z,39.29
2022-08-19T13:36:23.065Z,39.06
2022-08-19T13:39:49.846Z,38.82
2022-08-19T13:43:22.879Z,38.23
2022-08-19T13:46:54.247Z,38.69
2022-08-19T13:50:24.209Z,37.85
2022-08-19T13:54:03.163Z,37.80
2022-08-19T13:57:31.550Z,37.30
2022-08-19T14:01:00.405Z,37.22
2022-08-19T14:04:27.767Z,37.47
2022-08-19T14:07:55.061Z,37.31
2022-08-19T14:11:24.243Z,36.98
2022-08-19T14:14:51.153Z,36.74
2022-08-19T14:18:18.818Z,36.63
2022-08-19T14:21:45.922Z,36.75
2022-08-19T14:25:16.573Z,36.42
2022-08-19T14:28:44.182Z,36.55
2022-08-19T14:32:16.759Z,36.11
2022-08-19T14:35:46.048Z,36.11
2022-08-19T14:39:13.167Z,35.84
2022-08-19T14:42:40.713Z,35.94
2022-08-19T14:46:10.550Z,35.15
2022-08-19T14:49:43.106Z,35.37
2022-08-19T14:53:13.655Z,35.00
2022-08-19T14:56:44.587Z,35.47
2022-08-19T15:00:15.199Z,35.18
2022-08-19T15:03:42.789Z,35.08
2022-08-19T15:07:10.506Z,34.86
2022-08-19T15:10:37.469Z,34.91
2022-08-19T15:14:04.309Z,34.48
2022-08-19T15:17:32.388Z,34.63
2022-08-19T15:21:13.786Z,34.51
2022-08-19T15:24:47.810Z,34.52
2022-08-19T15:28:17.581Z,34.53
2022-08-19T15:31:47.897Z,34.67
2022-08-19T15:35:16.411Z,34.84
2022-08-19T15:38:46.077Z,34.93
2022-08-19T15:42:13.060Z,34.98
2022-08-19T15:45:55.329Z,34.90
2022-08-19T15:49:23.045Z,34.92
2022-08-19T15:52:52.366Z,35.23
2022-08-19T15:57:01.167Z,35.15
2022-08-19T16:00:45.943Z,35.40
2022-08-19T16:04:37.820Z,35.21
2022-08-19T16:08:04.724Z,35.53
2022-08-19T16:11:39.292Z,35.43
2022-08-19T16:15:08.252Z,35.70
2022-08-19T16:18:41.109Z,35.59
2022-08-19T16:22:09.254Z,35.83
2022-08-19T16:25:36.767Z,36.12
2022-08-19T16:29:09.105Z,36.19
2022-08-19T16:32:43.874Z,36.74
2022-08-19T16:36:14.392Z,36.74
2022-08-19T16:39:44.362Z,37.05
2022-08-19T16:43:13.092Z,37.22
2022-08-19T16:46:42.460Z,37.52
2022-08-19T16:50:12.572Z,37.83
2022-08-19T16:53:41.073Z,38.13
2022-08-19T16:57:09.147Z,38.13
2022-08-19T17:00:40.307Z,38.43
2022-08-19T17:04:08.567Z,38.68
2022-08-19T17:07:37.875Z,39.03
2022-08-19T17:11:18.074Z,39.37
2022-08-19T17:14:48.260Z,39.58
2022-08-19T17:18:21.802Z,39.69
2022-08-19T17:21:49.279Z,40.24
2022-08-19T17:25:17.153Z,40.79
2022-08-19T17:28:45.138Z,41.08
2022-08-19T17:32:12.858Z,41.40
2022-08-19T17:35:44.114Z,41.84
2022-08-19T17:39:15.185Z,42.22
2022-08-19T17:42:44.380Z,42.36
2022-08-19T17:46:25.656Z,42.93
2022-08-19T17:49:54.258Z,43.22
2022-08-19T17:53:22.281Z,43.47
2022-08-19T17:56:50.025Z,43.76
2022-08-19T18:00:19.856Z,43.95
2022-08-19T18:03:50.414Z,44.27
2022-08-19T18:07:21.804Z,44.50
2022-08-19T18:10:50.264Z,44.53
2022-08-19T18:14:19.041Z,44.67
2022-08-19T18:17:51.337Z,44.76
2022-08-19T18:21:19.232Z,44.79
2022-08-19T18:24:46.513Z,44.80
2022-08-19T18:28:14.957Z,44.97
2022-08-19T18:31:44.846Z,45.17
2022-08-19T18:35:20.538Z,45.42
2022-08-19T18:39:06.924Z,45.71
2022-08-19T18:42:53.673Z,45.80
2022-08-19T18:46:41.904Z,46.04
2022-08-19T18:50:13.889Z,46.39
2022-08-19T18:53:46.621Z,46.65
2022-08-19T18:57:13.432Z,46.93
2022-08-19T19:00:46.104Z,47.29
2022-08-19T19:04:15.616Z,47.08
2022-08-19T19:07:44.419Z,47.25
2022-08-19T19:11:23.810Z,47.49
2022-08-19T19:14:53.475Z,47.54
2022-08-19T19:18:23.577Z,47.80
2022-08-19T19:22:00.154Z,47.92
2022-08-19T19:25:49.833Z,48.15
2022-08-19T19:29:23.347Z,48.20
2022-08-19T19:32:51.818Z,48.34
2022-08-19T19:36:20.497Z,48.55
2022-08-19T19:39:51.852Z,48.75
2022-08-19T19:43:23.553Z,49.00
2022-08-19T19:47:00.475Z,49.17
2022-08-19T19:50:30.623Z,49.32
2022-08-19T19:54:02.396Z,49.37
2022-08-19T19:57:32.021Z,49.62
2022-08-19T20:01:09.548Z,49.91
2022-08-19T20:04:41.989Z,50.29
2022-08-19T20:08:27.402Z,50.49
2022-08-19T20:11:58.293Z,50.47
2022-08-19T20:15:30.490Z,50.57
2022-08-19T20:18:59.235Z,50.75
2022-08-19T20:22:29.682Z,50.98
2022-08-19T20:26:03.204Z,51.21
2022-08-19T20:29:38.882Z,51.32
2022-08-19T20:33:10.651Z,51.50
2022-08-19T20:36:45.336Z,51.59
2022-08-19T20:40:16.012Z,51.91
2022-08-19T20:43:48.736Z,52.18
2022-08-19T20:47:21.260Z,52.17
2022-08-19T20:50:49.175Z,52.19
2022-08-19T20:54:21.269Z,52.29
2022-08-19T20:57:51.244Z,52.47
2022-08-19T21:01:20.600Z,52.74
2022-08-19T21:04:53.248Z,53.16
2022-08-19T21:08:30.452Z,53.25
2022-08-19T21:11:59.419Z,53.31
2022-08-19T21:15:27.555Z,53.30
2022-08-19T21:19:01.414Z,53.33
2022-08-19T21:22:34.822Z,53.43
2022-08-19T21:26:03.280Z,53.54
2022-08-19T21:29:32.440Z,53.45
2022-08-19T21:33:01.319Z,53.69
2022-08-19T21:36:28.677Z,53.72
2022-08-19T21:40:01.909Z,53.91
2022-08-19T21:43:33.791Z,54.04
2022-08-19T21:47:10.625Z,54.06
2022-08-19T21:50:40.136Z,54.20
2022-08-19T21:54:14.073Z,54.26
2022-08-19T21:57:43.357Z,54.53
2022-08-19T22:01:13.271Z,54.53
2022-08-19T22:04:45.401Z,54.60
2022-08-19T22:08:20.537Z,54.68
2022-08-19T22:11:50.934Z,54.85
2022-08-19T22:15:21.965Z,54.93
2022-08-19T22:18:51.110Z,54.88
2022-08-19T22:22:24.355Z,54.94
2022-08-19T22:25:54.256Z,55.18
2022-08-19T22:29:33.727Z,55.32
2022-08-19T22:33:21.785Z,55.39
2022-08-19T22:36:53.010Z,55.25
2022-08-19T22:40:22.999Z,55.25
2022-08-19T22:43:54.387Z,55.36
2022-08-19T22:47:32.110Z,55.30
2022-08-19T22:51:22.838Z,55.38
2022-08-19T22:55:02.359Z,55.54
2022-08-19T22:58:31.812Z,55.49
2022-08-19T23:02:05.938Z,55.60
2022-08-19T23:05:37.160Z,55.76
2022-08-19T23:09:11.188Z,55.78
2022-08-19T23:12:48.030Z,55.96
2022-08-19T23:16:21.746Z,55.98
2022-08-19T23:19:51.156Z,56.26
2022-08-19T23:23:25.261Z,56.35
2022-08-19T23:27:12.022Z,56.40
2022-08-19T23:30:43.900Z,56.54
2022-08-19T23:34:16.115Z,56.59
2022-08-19T23:37:45.099Z,56.69
2022-08-19T23:41:15.233Z,56.82
2022-08-19T23:44:51.336Z,57.00
2022-08-19T23:48:20.102Z,57.14
2022-08-19T23:51:47.478Z,57.29
2022-08-19T23:55:16.498Z,57.43
2022-08-19T23:58:44.203Z,57.64
